PWSweather.com
Personal Weather Stations
Station Observations
KCAESCON219
Escondido, CA

Escondido, CA

Lat: 33.07406998, Lon: -117.08213043

Elevation: 75

Station Type:

Latest ConditionsUpdated 12:08:00 PM PST Tuesday, Feb 19, 2019
Currently Today's Max Today's Min Today's Average
Temperature 56.8°F13.8°C 56.8°F13.8°C 30.7°F-0.7°C 37.6°F3.1°C
Dew Point 23.2°F-4.9°C 37.7°F3.2°C 20.0°F-6.7°C 32.1°F0.1°C
Winds 0.7 mph NW1.1 kmh NW 3.8 mph -6.1 kmh - - 0.3 mph 0.5 kmh
Wind Gusts 1.1 mph1.8 kmh 4.5 mph7.2 kmh - -
Humidity 27% 99% 24% 86%
Pressure 0.00 in0.0 mb 0.00 in0.0 mb 0.00 in0.0 mb -
Precipitation - 0.01 in0.3 mm - -
Hour Temp Dew Point Humidity Winds Wind Gusts Pressure Precip Precip Rate Daily Precip Total
12:08 PM 56.8°F13.8°C 23.2°F-4.9°C 27% 0.7 mph NW1.1 kmh NW 1.1 mph1.8 kmh 0.00 in0.0 mb 0.00 in0.0 mm 0.00 in0.0 mm 0.01 in0.3 mm
12:04 PM 56.7°F13.7°C 22.2°F-5.4°C 26% 3.8 mph W6.1 kmh W 4.5 mph7.2 kmh 0.00 in0.0 mb 0.00 in0.0 mm 0.00 in0.0 mm 0.01 in0.3 mm
11:59 AM 56.5°F13.6°C 23.8°F-4.6°C 28% 0.9 mph WNW1.4 kmh WNW 1.1 mph1.8 kmh 0.00 in0.0 mb 0.00 in0.0 mm 0.00 in0.0 mm 0.01 in0.3 mm
11:53 AM 56.3°F13.5°C 23.6°F-4.7°C 28% 2.7 mph W4.3 kmh W 3.4 mph5.5 kmh 0.00 in0.0 mb 0.00 in0.0 mm 0.00 in0.0 mm 0.01 in0.3 mm
11:49 AM 56.3°F13.5°C 25.3°F-3.7°C 30% 1.3 mph WSW2.1 kmh WSW 2.2 mph3.5 kmh 0.00 in0.0 mb 0.00 in0.0 mm 0.00 in0.0 mm 0.01 in0.3 mm
11:43 AM 56.3°F13.5°C 20.0°F-6.7°C 24% 1.3 mph WSW2.1 kmh WSW 2.2 mph3.5 kmh 0.00 in0.0 mb 0.00 in0.0 mm 0.00 in0.0 mm 0.01 in0.3 mm
11:39 AM 56.3°F13.5°C 21.9°F-5.6°C 26% 0.9 mph SW1.4 kmh SW 1.1 mph1.8 kmh 0.00 in0.0 mb 0.00 in0.0 mm 0.00 in0.0 mm 0.01 in0.3 mm
11:33 AM 56.5°F13.6°C 30.5°F-0.8°C 37% 2.9 mph NW4.7 kmh NW 3.4 mph5.5 kmh 0.00 in0.0 mb 0.00 in0.0 mm 0.00 in0.0 mm 0.01 in0.3 mm
11:29 AM 56.5°F13.6°C 32.5°F0.3°C 40% 0.9 mph W1.4 kmh W 1.1 mph1.8 kmh 0.00 in0.0 mb 0.00 in0.0 mm 0.00 in0.0 mm 0.01 in0.3 mm
11:24 AM 56.3°F13.5°C 29.7°F-1.3°C 36% 1.8 mph NW2.9 kmh NW 2.2 mph3.5 kmh 0.00 in0.0 mb 0.00 in0.0 mm 0.00 in0.0 mm 0.01 in0.3 mm
11:19 AM 56.1°F13.4°C 27.4°F-2.6°C 33% 0.7 mph W1.1 kmh W 1.1 mph1.8 kmh 0.00 in0.0 mb 0.00 in0.0 mm 0.00 in0.0 mm 0.01 in0.3 mm
11:14 AM 55.8°F13.2°C 29.3°F-1.5°C 36% 2.9 mph ENE4.7 kmh ENE 3.4 mph5.5 kmh 0.00 in0.0 mb 0.00 in0.0 mm 0.00 in0.0 mm 0.01 in0.3 mm
11:08 AM 55.2°F12.9°C 30.0°F-1.1°C 38% 0.9 mph NNW1.4 kmh NNW 1.1 mph1.8 kmh 0.00 in0.0 mb 0.00 in0.0 mm 0.00 in0.0 mm 0.01 in0.3 mm
11:04 AM 54.7°F12.6°C 26.2°F-3.2°C 33% Calm Calm -- 0.00 in0.0 mb 0.00 in0.0 mm 0.00 in0.0 mm 0.01 in0.3 mm
10:59 AM 54.0°F12.2°C 31.4°F-0.3°C 42% Calm Calm -- 0.00 in0.0 mb 0.00 in0.0 mm 0.00 in0.0 mm 0.01 in0.3 mm
10:53 AM 53.4°F11.9°C 27.8°F-2.3°C 37% 2.2 mph SE3.5 kmh SE 2.2 mph3.5 kmh 0.00 in0.0 mb 0.00 in0.0 mm 0.00 in0.0 mm 0.01 in0.3 mm
10:49 AM 53.1°F11.7°C 31.8°F-0.1°C 44% Calm Calm -- 0.00 in0.0 mb 0.00 in0.0 mm 0.00 in0.0 mm 0.01 in0.3 mm
10:44 AM 52.5°F11.4°C 30.7°F-0.7°C 43% 1.1 mph SE1.8 kmh SE 2.2 mph3.5 kmh 0.00 in0.0 mb 0.00 in0.0 mm 0.00 in0.0 mm 0.01 in0.3 mm
10:38 AM 52.2°F11.2°C 33.1°F0.6°C 48% 1.3 mph SSE2.1 kmh SSE 2.2 mph3.5 kmh 0.00 in0.0 mb 0.00 in0.0 mm 0.00 in0.0 mm 0.01 in0.3 mm
10:28 AM 51.4°F10.8°C 34.4°F1.3°C 52% 1.1 mph WSW1.8 kmh WSW 2.2 mph3.5 kmh 0.00 in0.0 mb 0.00 in0.0 mm 0.00 in0.0 mm 0.01 in0.3 mm
10:23 AM 50.9°F10.5°C 32.4°F0.2°C 49% 1.3 mph SW2.1 kmh SW 2.2 mph3.5 kmh 0.00 in0.0 mb 0.00 in0.0 mm 0.00 in0.0 mm 0.01 in0.3 mm
10:19 AM 50.5°F10.3°C 32.6°F0.3°C 50% 2.2 mph SE3.5 kmh SE 2.2 mph3.5 kmh 0.00 in0.0 mb 0.00 in0.0 mm 0.00 in0.0 mm 0.01 in0.3 mm
10:12 AM 50.0°F10.0°C 34.5°F1.4°C 55% 1.3 mph W2.1 kmh W 2.2 mph3.5 kmh 0.00 in0.0 mb 0.00 in0.0 mm 0.00 in0.0 mm 0.01 in0.3 mm
10:09 AM 49.8°F9.9°C 33.8°F1.0°C 54% Calm Calm -- 0.00 in0.0 mb 0.00 in0.0 mm 0.00 in0.0 mm 0.01 in0.3 mm
10:04 AM 49.6°F9.8°C 33.2°F0.7°C 53% 0.9 mph ESE1.4 kmh ESE 1.1 mph1.8 kmh 0.00 in0.0 mb 0.00 in0.0 mm 0.00 in0.0 mm 0.01 in0.3 mm
09:59 AM 49.3°F9.6°C 33.4°F0.8°C 54% 0.9 mph SE1.4 kmh SE 1.1 mph1.8 kmh 0.00 in0.0 mb 0.00 in0.0 mm 0.00 in0.0 mm 0.01 in0.3 mm
09:53 AM 49.3°F9.6°C 36.4°F2.4°C 61% 1.1 mph SSE1.8 kmh SSE 1.1 mph1.8 kmh 0.00 in0.0 mb 0.00 in0.0 mm 0.00 in0.0 mm 0.01 in0.3 mm
09:49 AM 48.9°F9.4°C 36.0°F2.2°C 61% 0.7 mph ENE1.1 kmh ENE 1.1 mph1.8 kmh 0.00 in0.0 mb 0.00 in0.0 mm 0.00 in0.0 mm 0.01 in0.3 mm
09:44 AM 48.6°F9.2°C 35.8°F2.1°C 61% 2.9 mph SE4.7 kmh SE 3.4 mph5.5 kmh 0.00 in0.0 mb 0.00 in0.0 mm 0.00 in0.0 mm 0.01 in0.3 mm
09:34 AM 47.7°F8.7°C 34.9°F1.6°C 61% 1.3 mph ENE2.1 kmh ENE 2.2 mph3.5 kmh 0.00 in0.0 mb 0.00 in0.0 mm 0.00 in0.0 mm 0.01 in0.3 mm
09:28 AM 46.8°F8.2°C 33.7°F0.9°C 60% 0.2 mph ENE0.3 kmh ENE 1.1 mph1.8 kmh 0.00 in0.0 mb 0.00 in0.0 mm 0.00 in0.0 mm 0.01 in0.3 mm
09:22 AM 45.5°F7.5°C 37.7°F3.2°C 74% Calm Calm -- 0.00 in0.0 mb 0.00 in0.0 mm 0.00 in0.0 mm 0.01 in0.3 mm
09:14 AM 43.9°F6.6°C 36.5°F2.5°C 75% Calm Calm -- 0.00 in0.0 mb 0.00 in0.0 mm 0.00 in0.0 mm 0.01 in0.3 mm
09:09 AM 42.6°F5.9°C 33.2°F0.7°C 69% 0.2 mph NW0.3 kmh NW 1.1 mph1.8 kmh 0.00 in0.0 mb 0.00 in0.0 mm 0.00 in0.0 mm 0.01 in0.3 mm
09:04 AM 41.5°F5.3°C 33.5°F0.8°C 73% Calm Calm -- 0.00 in0.0 mb 0.00 in0.0 mm 0.00 in0.0 mm 0.01 in0.3 mm
08:59 AM 40.5°F4.7°C 35.8°F2.1°C 83% Calm Calm -- 0.00 in0.0 mb 0.01 in0.3 mm 0.00 in0.0 mm 0.01 in0.3 mm
08:52 AM 39.2°F4.0°C 36.2°F2.3°C 89% Calm Calm -- 0.00 in0.0 mb 0.01 in0.3 mm 0.00 in0.0 mm 0.01 in0.3 mm
08:48 AM 38.7°F3.7°C 36.6°F2.6°C 92% 0.2 mph WNW0.3 kmh WNW 1.1 mph1.8 kmh 0.00 in0.0 mb 0.01 in0.3 mm 0.00 in0.0 mm 0.01 in0.3 mm
08:44 AM 38.1°F3.4°C 36.8°F2.7°C 95% Calm Calm -- 0.00 in0.0 mb 0.01 in0.3 mm 0.00 in0.0 mm 0.01 in0.3 mm
08:39 AM 37.8°F3.2°C 37.0°F2.8°C 97% Calm Calm -- 0.00 in0.0 mb 0.01 in0.3 mm 0.00 in0.0 mm 0.01 in0.3 mm
08:34 AM 37.2°F2.9°C 36.9°F2.7°C 99% 0.2 mph WNW0.3 kmh WNW 1.1 mph1.8 kmh 0.00 in0.0 mb 0.01 in0.3 mm 0.12 in3.0 mm 0.01 in0.3 mm
08:29 AM 36.9°F2.7°C 36.6°F2.6°C 99% 0.2 mph WNW0.3 kmh WNW 1.1 mph1.8 kmh 0.00 in0.0 mb 0.00 in0.0 mm 0.00 in0.0 mm 0.00 in0.0 mm
08:23 AM 36.3°F2.4°C 36.0°F2.2°C 99% Calm Calm -- 0.00 in0.0 mb 0.00 in0.0 mm 0.00 in0.0 mm 0.00 in0.0 mm
08:14 AM 35.8°F2.1°C 35.5°F1.9°C 99% Calm Calm -- 0.00 in0.0 mb 0.00 in0.0 mm 0.00 in0.0 mm 0.00 in0.0 mm
08:08 AM 35.2°F1.8°C 34.9°F1.6°C 99% Calm Calm -- 0.00 in0.0 mb 0.00 in0.0 mm 0.00 in0.0 mm 0.00 in0.0 mm
08:04 AM 35.2°F1.8°C 34.9°F1.6°C 99% Calm Calm -- 0.00 in0.0 mb 0.00 in0.0 mm 0.00 in0.0 mm 0.00 in0.0 mm
07:59 AM 34.9°F1.6°C 34.6°F1.4°C 99% Calm Calm -- 0.00 in0.0 mb 0.00 in0.0 mm 0.00 in0.0 mm 0.00 in0.0 mm
07:52 AM 34.3°F1.3°C 34.0°F1.1°C 99% Calm Calm -- 0.00 in0.0 mb 0.00 in0.0 mm 0.00 in0.0 mm 0.00 in0.0 mm
07:47 AM 33.8°F1.0°C 33.5°F0.8°C 99% Calm Calm -- 0.00 in0.0 mb 0.00 in0.0 mm 0.00 in0.0 mm 0.00 in0.0 mm
07:44 AM 33.4°F0.8°C 33.1°F0.6°C 99% Calm Calm -- 0.00 in0.0 mb 0.00 in0.0 mm 0.00 in0.0 mm 0.00 in0.0 mm
07:37 AM 32.9°F0.5°C 32.7°F0.4°C 99% Calm Calm -- 0.00 in0.0 mb 0.00 in0.0 mm 0.00 in0.0 mm 0.00 in0.0 mm
07:32 AM 32.4°F0.2°C 32.2°F0.1°C 99% Calm Calm -- 0.00 in0.0 mb 0.00 in0.0 mm 0.00 in0.0 mm 0.00 in0.0 mm
07:29 AM 32.2°F0.1°C 32.0°F0.0°C 99% 0.2 mph NW0.3 kmh NW 1.1 mph1.8 kmh 0.00 in0.0 mb 0.00 in0.0 mm 0.00 in0.0 mm 0.00 in0.0 mm
07:23 AM 31.8°F-0.1°C 31.6°F-0.2°C 99% Calm Calm -- 0.00 in0.0 mb 0.00 in0.0 mm 0.00 in0.0 mm 0.00 in0.0 mm
07:18 AM 31.6°F-0.2°C 31.4°F-0.3°C 99% Calm Calm -- 0.00 in0.0 mb 0.00 in0.0 mm 0.00 in0.0 mm 0.00 in0.0 mm
07:14 AM 31.5°F-0.3°C 31.3°F-0.4°C 99% Calm Calm -- 0.00 in0.0 mb 0.00 in0.0 mm 0.00 in0.0 mm 0.00 in0.0 mm
07:08 AM 31.1°F-0.5°C 30.9°F-0.6°C 99% 0.7 mph NW1.1 kmh NW 1.1 mph1.8 kmh 0.00 in0.0 mb 0.00 in0.0 mm 0.00 in0.0 mm 0.00 in0.0 mm
07:04 AM 31.1°F-0.5°C 30.9°F-0.6°C 99% 0.7 mph WNW1.1 kmh WNW 1.1 mph1.8 kmh 0.00 in0.0 mb 0.00 in0.0 mm 0.00 in0.0 mm 0.00 in0.0 mm
06:58 AM 30.9°F-0.6°C 30.7°F-0.7°C 99% 0.9 mph WNW1.4 kmh WNW 1.1 mph1.8 kmh 0.00 in0.0 mb 0.00 in0.0 mm 0.00 in0.0 mm 0.00 in0.0 mm
06:53 AM 30.9°F-0.6°C 30.7°F-0.7°C 99% Calm Calm -- 0.00 in0.0 mb 0.00 in0.0 mm 0.00 in0.0 mm 0.00 in0.0 mm
06:49 AM 30.7°F-0.7°C 30.5°F-0.8°C 99% 0.4 mph WNW0.6 kmh WNW 1.1 mph1.8 kmh 0.00 in0.0 mb 0.00 in0.0 mm 0.00 in0.0 mm 0.00 in0.0 mm
06:43 AM 30.7°F-0.7°C 30.5°F-0.8°C 99% Calm Calm -- 0.00 in0.0 mb 0.00 in0.0 mm 0.00 in0.0 mm 0.00 in0.0 mm
06:38 AM 30.7°F-0.7°C 30.5°F-0.8°C 99% Calm Calm -- 0.00 in0.0 mb 0.00 in0.0 mm 0.00 in0.0 mm 0.00 in0.0 mm
06:34 AM 30.7°F-0.7°C 30.5°F-0.8°C 99% Calm Calm -- 0.00 in0.0 mb 0.00 in0.0 mm 0.00 in0.0 mm 0.00 in0.0 mm
06:28 AM 30.7°F-0.7°C 30.5°F-0.8°C 99% Calm Calm -- 0.00 in0.0 mb 0.00 in0.0 mm 0.00 in0.0 mm 0.00 in0.0 mm
06:24 AM 30.7°F-0.7°C 30.5°F-0.8°C 99% Calm Calm -- 0.00 in0.0 mb 0.00 in0.0 mm 0.00 in0.0 mm 0.00 in0.0 mm
06:19 AM 30.7°F-0.7°C 30.5°F-0.8°C 99% Calm Calm -- 0.00 in0.0 mb 0.00 in0.0 mm 0.00 in0.0 mm 0.00 in0.0 mm
06:13 AM 30.9°F-0.6°C 30.7°F-0.7°C 99% Calm Calm -- 0.00 in0.0 mb 0.00 in0.0 mm 0.00 in0.0 mm 0.00 in0.0 mm
06:09 AM 30.9°F-0.6°C 30.7°F-0.7°C 99% Calm Calm -- 0.00 in0.0 mb 0.00 in0.0 mm 0.00 in0.0 mm 0.00 in0.0 mm
06:02 AM 30.9°F-0.6°C 30.7°F-0.7°C 99% Calm Calm -- 0.00 in0.0 mb 0.00 in0.0 mm 0.00 in0.0 mm 0.00 in0.0 mm
05:58 AM 30.9°F-0.6°C 30.7°F-0.7°C 99% Calm Calm -- 0.00 in0.0 mb 0.00 in0.0 mm 0.00 in0.0 mm 0.00 in0.0 mm
05:53 AM 30.9°F-0.6°C 30.7°F-0.7°C 99% Calm Calm -- 0.00 in0.0 mb 0.00 in0.0 mm 0.00 in0.0 mm 0.00 in0.0 mm
05:48 AM 30.9°F-0.6°C 30.7°F-0.7°C 99% Calm Calm -- 0.00 in0.0 mb 0.00 in0.0 mm 0.00 in0.0 mm 0.00 in0.0 mm
05:44 AM 30.9°F-0.6°C 30.7°F-0.7°C 99% Calm Calm -- 0.00 in0.0 mb 0.00 in0.0 mm 0.00 in0.0 mm 0.00 in0.0 mm
05:38 AM 30.9°F-0.6°C 30.7°F-0.7°C 99% Calm Calm -- 0.00 in0.0 mb 0.00 in0.0 mm 0.00 in0.0 mm 0.00 in0.0 mm
05:34 AM 30.9°F-0.6°C 30.7°F-0.7°C 99% Calm Calm -- 0.00 in0.0 mb 0.00 in0.0 mm 0.00 in0.0 mm 0.00 in0.0 mm
05:29 AM 31.1°F-0.5°C 30.9°F-0.6°C 99% Calm Calm -- 0.00 in0.0 mb 0.00 in0.0 mm 0.00 in0.0 mm 0.00 in0.0 mm
05:23 AM 31.1°F-0.5°C 30.9°F-0.6°C 99% Calm Calm -- 0.00 in0.0 mb 0.00 in0.0 mm 0.00 in0.0 mm 0.00 in0.0 mm
05:19 AM 31.1°F-0.5°C 30.9°F-0.6°C 99% Calm Calm -- 0.00 in0.0 mb 0.00 in0.0 mm 0.00 in0.0 mm 0.00 in0.0 mm
05:12 AM 31.3°F-0.4°C 31.1°F-0.5°C 99% Calm Calm -- 0.00 in0.0 mb 0.00 in0.0 mm 0.00 in0.0 mm 0.00 in0.0 mm
05:08 AM 31.3°F-0.4°C 31.1°F-0.5°C 99% Calm Calm -- 0.00 in0.0 mb 0.00 in0.0 mm 0.00 in0.0 mm 0.00 in0.0 mm
05:04 AM 31.3°F-0.4°C 31.1°F-0.5°C 99% Calm Calm -- 0.00 in0.0 mb 0.00 in0.0 mm 0.00 in0.0 mm 0.00 in0.0 mm
04:59 AM 31.3°F-0.4°C 31.1°F-0.5°C 99% Calm Calm -- 0.00 in0.0 mb 0.00 in0.0 mm 0.00 in0.0 mm 0.00 in0.0 mm
04:54 AM 31.3°F-0.4°C 31.1°F-0.5°C 99% Calm Calm -- 0.00 in0.0 mb 0.00 in0.0 mm 0.00 in0.0 mm 0.00 in0.0 mm
04:48 AM 31.3°F-0.4°C 31.1°F-0.5°C 99% Calm Calm -- 0.00 in0.0 mb 0.00 in0.0 mm 0.00 in0.0 mm 0.00 in0.0 mm
04:44 AM 31.1°F-0.5°C 30.9°F-0.6°C 99% Calm Calm -- 0.00 in0.0 mb 0.00 in0.0 mm 0.00 in0.0 mm 0.00 in0.0 mm
04:37 AM 31.1°F-0.5°C 30.9°F-0.6°C 99% Calm Calm -- 0.00 in0.0 mb 0.00 in0.0 mm 0.00 in0.0 mm 0.00 in0.0 mm
04:34 AM 31.1°F-0.5°C 30.9°F-0.6°C 99% Calm Calm -- 0.00 in0.0 mb 0.00 in0.0 mm 0.00 in0.0 mm 0.00 in0.0 mm
04:29 AM 31.1°F-0.5°C 30.9°F-0.6°C 99% Calm Calm -- 0.00 in0.0 mb 0.00 in0.0 mm 0.00 in0.0 mm 0.00 in0.0 mm
04:23 AM 31.3°F-0.4°C 31.1°F-0.5°C 99% Calm Calm -- 0.00 in0.0 mb 0.00 in0.0 mm 0.00 in0.0 mm 0.00 in0.0 mm
04:19 AM 31.3°F-0.4°C 31.1°F-0.5°C 99% Calm Calm -- 0.00 in0.0 mb 0.00 in0.0 mm 0.00 in0.0 mm 0.00 in0.0 mm
04:14 AM 31.3°F-0.4°C 31.1°F-0.5°C 99% Calm Calm -- 0.00 in0.0 mb 0.00 in0.0 mm 0.00 in0.0 mm 0.00 in0.0 mm
04:09 AM 31.5°F-0.3°C 31.3°F-0.4°C 99% Calm Calm -- 0.00 in0.0 mb 0.00 in0.0 mm 0.00 in0.0 mm 0.00 in0.0 mm
04:02 AM 31.6°F-0.2°C 31.4°F-0.3°C 99% Calm Calm -- 0.00 in0.0 mb 0.00 in0.0 mm 0.00 in0.0 mm 0.00 in0.0 mm
03:59 AM 31.8°F-0.1°C 31.6°F-0.2°C 99% Calm Calm -- 0.00 in0.0 mb 0.00 in0.0 mm 0.00 in0.0 mm 0.00 in0.0 mm
03:53 AM 31.8°F-0.1°C 31.6°F-0.2°C 99% 0.2 mph WNW0.3 kmh WNW 1.1 mph1.8 kmh 0.00 in0.0 mb 0.00 in0.0 mm 0.00 in0.0 mm 0.00 in0.0 mm
03:49 AM 31.8°F-0.1°C 31.6°F-0.2°C 99% Calm Calm -- 0.00 in0.0 mb 0.00 in0.0 mm 0.00 in0.0 mm 0.00 in0.0 mm
03:44 AM 32.0°F0.0°C 31.8°F-0.1°C 99% Calm Calm -- 0.00 in0.0 mb 0.00 in0.0 mm 0.00 in0.0 mm 0.00 in0.0 mm
03:38 AM 32.0°F0.0°C 31.8°F-0.1°C 99% Calm Calm -- 0.00 in0.0 mb 0.00 in0.0 mm 0.00 in0.0 mm 0.00 in0.0 mm
03:32 AM 32.2°F0.1°C 32.0°F0.0°C 99% Calm Calm -- 0.00 in0.0 mb 0.00 in0.0 mm 0.00 in0.0 mm 0.00 in0.0 mm
03:27 AM 32.2°F0.1°C 32.0°F0.0°C 99% Calm Calm -- 0.00 in0.0 mb 0.00 in0.0 mm 0.00 in0.0 mm 0.00 in0.0 mm
03:24 AM 32.2°F0.1°C 32.0°F0.0°C 99% Calm Calm -- 0.00 in0.0 mb 0.00 in0.0 mm 0.00 in0.0 mm 0.00 in0.0 mm
03:18 AM 32.4°F0.2°C 32.2°F0.1°C 99% Calm Calm -- 0.00 in0.0 mb 0.00 in0.0 mm 0.00 in0.0 mm 0.00 in0.0 mm
03:14 AM 32.4°F0.2°C 32.2°F0.1°C 99% Calm Calm -- 0.00 in0.0 mb 0.00 in0.0 mm 0.00 in0.0 mm 0.00 in0.0 mm
03:08 AM 32.5°F0.3°C 32.3°F0.2°C 99% Calm Calm -- 0.00 in0.0 mb 0.00 in0.0 mm 0.00 in0.0 mm 0.00 in0.0 mm
03:04 AM 32.5°F0.3°C 32.3°F0.2°C 99% Calm Calm -- 0.00 in0.0 mb 0.00 in0.0 mm 0.00 in0.0 mm 0.00 in0.0 mm
02:59 AM 32.5°F0.3°C 32.3°F0.2°C 99% Calm Calm -- 0.00 in0.0 mb 0.00 in0.0 mm 0.00 in0.0 mm 0.00 in0.0 mm
02:53 AM 32.7°F0.4°C 32.5°F0.3°C 99% Calm Calm -- 0.00 in0.0 mb 0.00 in0.0 mm 0.00 in0.0 mm 0.00 in0.0 mm
02:48 AM 32.9°F0.5°C 32.7°F0.4°C 99% Calm Calm -- 0.00 in0.0 mb 0.00 in0.0 mm 0.00 in0.0 mm 0.00 in0.0 mm
02:43 AM 32.7°F0.4°C 32.5°F0.3°C 99% Calm Calm -- 0.00 in0.0 mb 0.00 in0.0 mm 0.00 in0.0 mm 0.00 in0.0 mm
02:39 AM 32.7°F0.4°C 32.5°F0.3°C 99% Calm Calm -- 0.00 in0.0 mb 0.00 in0.0 mm 0.00 in0.0 mm 0.00 in0.0 mm
02:34 AM 32.7°F0.4°C 32.5°F0.3°C 99% Calm Calm -- 0.00 in0.0 mb 0.00 in0.0 mm 0.00 in0.0 mm 0.00 in0.0 mm
02:28 AM 32.9°F0.5°C 32.7°F0.4°C 99% Calm Calm -- 0.00 in0.0 mb 0.00 in0.0 mm 0.00 in0.0 mm 0.00 in0.0 mm
02:24 AM 32.9°F0.5°C 32.7°F0.4°C 99% Calm Calm -- 0.00 in0.0 mb 0.00 in0.0 mm 0.00 in0.0 mm 0.00 in0.0 mm
02:17 AM 32.9°F0.5°C 32.7°F0.4°C 99% Calm Calm -- 0.00 in0.0 mb 0.00 in0.0 mm 0.00 in0.0 mm 0.00 in0.0 mm
02:14 AM 32.9°F0.5°C 32.7°F0.4°C 99% Calm Calm -- 0.00 in0.0 mb 0.00 in0.0 mm 0.00 in0.0 mm 0.00 in0.0 mm
02:08 AM 33.1°F0.6°C 32.8°F0.4°C 99% Calm Calm -- 0.00 in0.0 mb 0.00 in0.0 mm 0.00 in0.0 mm 0.00 in0.0 mm
02:04 AM 33.1°F0.6°C 32.8°F0.4°C 99% Calm Calm -- 0.00 in0.0 mb 0.00 in0.0 mm 0.00 in0.0 mm 0.00 in0.0 mm
01:58 AM 33.1°F0.6°C 32.8°F0.4°C 99% 0.2 mph WNW0.3 kmh WNW 1.1 mph1.8 kmh 0.00 in0.0 mb 0.00 in0.0 mm 0.00 in0.0 mm 0.00 in0.0 mm
01:54 AM 33.1°F0.6°C 32.8°F0.4°C 99% Calm Calm -- 0.00 in0.0 mb 0.00 in0.0 mm 0.00 in0.0 mm 0.00 in0.0 mm
01:49 AM 33.3°F0.7°C 33.0°F0.6°C 99% Calm Calm -- 0.00 in0.0 mb 0.00 in0.0 mm 0.00 in0.0 mm 0.00 in0.0 mm
01:39 AM 33.6°F0.9°C 33.3°F0.7°C 99% 0.7 mph WNW1.1 kmh WNW 1.1 mph1.8 kmh 0.00 in0.0 mb 0.00 in0.0 mm 0.00 in0.0 mm 0.00 in0.0 mm
01:34 AM 33.8°F1.0°C 33.5°F0.8°C 99% Calm Calm -- 0.00 in0.0 mb 0.00 in0.0 mm 0.00 in0.0 mm 0.00 in0.0 mm
01:29 AM 33.8°F1.0°C 33.5°F0.8°C 99% Calm Calm -- 0.00 in0.0 mb 0.00 in0.0 mm 0.00 in0.0 mm 0.00 in0.0 mm
01:23 AM 33.8°F1.0°C 33.5°F0.8°C 99% Calm Calm -- 0.00 in0.0 mb 0.00 in0.0 mm 0.00 in0.0 mm 0.00 in0.0 mm
01:19 AM 34.0°F1.1°C 33.7°F0.9°C 99% Calm Calm -- 0.00 in0.0 mb 0.00 in0.0 mm 0.00 in0.0 mm 0.00 in0.0 mm
01:14 AM 34.0°F1.1°C 33.7°F0.9°C 99% Calm Calm -- 0.00 in0.0 mb 0.00 in0.0 mm 0.00 in0.0 mm 0.00 in0.0 mm
01:09 AM 34.0°F1.1°C 33.7°F0.9°C 99% Calm Calm -- 0.00 in0.0 mb 0.00 in0.0 mm 0.00 in0.0 mm 0.00 in0.0 mm
01:04 AM 33.8°F1.0°C 33.5°F0.8°C 99% Calm Calm -- 0.00 in0.0 mb 0.00 in0.0 mm 0.00 in0.0 mm 0.00 in0.0 mm
12:59 AM 33.8°F1.0°C 33.5°F0.8°C 99% Calm Calm -- 0.00 in0.0 mb 0.00 in0.0 mm 0.00 in0.0 mm 0.00 in0.0 mm
12:52 AM 34.0°F1.1°C 33.7°F0.9°C 99% Calm Calm -- 0.00 in0.0 mb 0.00 in0.0 mm 0.00 in0.0 mm 0.00 in0.0 mm
12:47 AM 34.0°F1.1°C 33.7°F0.9°C 99% Calm Calm -- 0.00 in0.0 mb 0.00 in0.0 mm 0.00 in0.0 mm 0.00 in0.0 mm
12:43 AM 34.0°F1.1°C 33.7°F0.9°C 99% Calm Calm -- 0.00 in0.0 mb 0.00 in0.0 mm 0.00 in0.0 mm 0.00 in0.0 mm
12:37 AM 34.2°F1.2°C 33.9°F1.1°C 99% Calm Calm -- 0.00 in0.0 mb 0.00 in0.0 mm 0.00 in0.0 mm 0.00 in0.0 mm
12:33 AM 34.3°F1.3°C 34.0°F1.1°C 99% Calm Calm -- 0.00 in0.0 mb 0.00 in0.0 mm 0.00 in0.0 mm 0.00 in0.0 mm
12:28 AM 34.5°F1.4°C 34.2°F1.2°C 99% Calm Calm -- 0.00 in0.0 mb 0.00 in0.0 mm 0.00 in0.0 mm 0.00 in0.0 mm
12:24 AM 34.5°F1.4°C 34.2°F1.2°C 99% Calm Calm -- 0.00 in0.0 mb 0.00 in0.0 mm 0.00 in0.0 mm 0.00 in0.0 mm
12:18 AM 34.7°F1.5°C 34.4°F1.3°C 99% Calm Calm -- 0.00 in0.0 mb 0.00 in0.0 mm 0.00 in0.0 mm 0.00 in0.0 mm
12:14 AM 34.9°F1.6°C 34.6°F1.4°C 99% Calm Calm -- 0.00 in0.0 mb 0.00 in0.0 mm 0.00 in0.0 mm 0.00 in0.0 mm
12:07 AM 35.1°F1.7°C 34.8°F1.6°C 99% Calm Calm -- 0.00 in0.0 mb 0.00 in0.0 mm 0.00 in0.0 mm 0.00 in0.0 mm
12:04 AM 35.1°F1.7°C 34.8°F1.6°C 99% Calm Calm -- 0.00 in0.0 mb 0.00 in0.0 mm 0.00 in0.0 mm 0.00 in0.0 mm